Lake, Wisconsin
Current Conditions -  °F | °C
As of 6:55 AM on Saturday 20 Dec 2014 (Local Time) from KPBH Reporting Station
Overcast Overcast  
Wind Chill: 17°   Ceiling: 800
Heat Index: 24°   Visibility: 10mi
Dew Point: 22°   Wind: 6mph
Humidity: 94%   Direction: 180°S
Pressure: 30.17"   Gusts: NA
Location:  45.9599°N, 90.2362°W
Report Text: KPBH 201255Z AUTO 18005KT 10SM BKN008 OVC011 M05/M05 A3017 RMK AO2 T10461055
Loading
Personal Weather Stations






























Interactive Weather Map New forecast layout! Learn more

10-Day Weather Forecast

Advertisements
Track Severe Weather on mobile